Wind from 157 at 5 knots gusting 9

Air temperature 15.6° C
Dewpoint 11.9° C

Last reported at 2014-Apr-16 15:50 UTC.
Time now 2014-Apr-16 16:11 UTC

Location: N 38°03' E 023°51'.
View on Google Maps.

See reports from other nearby stations

Tides Stations Pressure Air Temp Water Temp Dewpoint Dewpoint depression Visibility Wind Speed Wind Dir Waves Ship positions

  
sailing weather and tide predictions

SV1LH-1 Melissia GR weather

date/time (UTC)wind fromknots sea level pressurealtimeterstation pressurevisibilityair tempwater tempwave heightnotes
2014-Apr-16 15:50 157 5 gusting 9 15.6
2014-Apr-16 15:45 157 4 gusting 11 15.6
2014-Apr-16 15:40 180 6 gusting 7 15.0
2014-Apr-16 15:35 157 5 gusting 7 15.0
2014-Apr-16 15:30 157 8 gusting 12 15.6
2014-Apr-16 15:25 202 2 gusting 3 15.0
2014-Apr-16 15:20 202 6 gusting 9 15.0
2014-Apr-16 15:15 157 5 gusting 7 15.0
2014-Apr-16 15:10 180 5 gusting 11 15.0
2014-Apr-16 15:05 180 6 gusting 8 15.6
2014-Apr-16 15:00 157 5 gusting 8 15.6
2014-Apr-16 14:55 180 8 gusting 13 15.6
2014-Apr-16 14:50 270 5 gusting 9 15.6
2014-Apr-16 14:45 135 3 gusting 5 15.0
2014-Apr-16 14:40 202 6 gusting 9 15.6
2014-Apr-16 14:35 180 5 gusting 7 15.6
2014-Apr-16 14:30 135 5 gusting 9 15.6
2014-Apr-16 14:25 202 5 gusting 8 15.6
2014-Apr-16 14:20 180 7 gusting 10 15.0
2014-Apr-16 14:15 225 8 gusting 11 15.0
2014-Apr-16 14:10 157 6 gusting 9 15.0
2014-Apr-16 14:05 202 6 gusting 10 14.4
2014-Apr-16 14:00 180 9 gusting 13 15.0
2014-Apr-16 13:55 112 7 gusting 9 15.0
2014-Apr-16 13:50 180 4 gusting 7 15.0
2014-Apr-16 13:45 225 4 gusting 6 15.0
2014-Apr-16 13:40 180 6 gusting 12 15.6
2014-Apr-16 13:35 225 4 gusting 7 15.0
2014-Apr-16 13:30 202 5 gusting 7 15.0
2014-Apr-16 13:25 157 6 gusting 9 15.0
2014-Apr-16 13:20 157 5 gusting 6 15.0
2014-Apr-16 13:15 247 6 gusting 9 15.0
2014-Apr-16 13:10 202 6 gusting 12 15.6
2014-Apr-16 13:05 180 6 gusting 9 15.0
2014-Apr-16 13:00 225 6 gusting 9 15.0
2014-Apr-16 12:55 180 4 gusting 6 15.0
2014-Apr-16 12:50 135 4 gusting 6 15.0
2014-Apr-16 12:45 157 5 gusting 7 15.6
2014-Apr-16 12:40 135 5 gusting 12 15.6
2014-Apr-16 12:35 225 5 gusting 8 15.6
2014-Apr-16 12:30 180 5 gusting 7 15.6
2014-Apr-16 12:25 157 6 gusting 11 15.6
2014-Apr-16 12:20 225 3 gusting 5 15.6
2014-Apr-16 12:15 112 2 gusting 4 15.6
2014-Apr-16 12:10 157 6 gusting 11 15.0
2014-Apr-16 12:05 180 4 gusting 6 15.0
2014-Apr-16 12:00 180 3 gusting 6 15.0
2014-Apr-16 11:55 202 5 gusting 7 15.0
2014-Apr-16 11:50 157 6 gusting 9 15.0
2014-Apr-16 11:45 180 5 gusting 6 15.0
2014-Apr-16 11:40 157 6 gusting 6 15.0
2014-Apr-16 11:35 202 7 gusting 10 15.0
2014-Apr-16 11:30 202 7 gusting 11 15.6
2014-Apr-16 11:25 180 4 gusting 8 15.6
2014-Apr-16 11:20 135 5 gusting 7 15.6
2014-Apr-16 11:15 157 6 gusting 10 16.1
2014-Apr-16 11:10 202 5 gusting 8 16.7
2014-Apr-16 11:05 225 8 gusting 14 17.2
2014-Apr-16 11:00 135 7 gusting 11 18.3
2014-Apr-16 10:55 225 9 gusting 13 18.9
2014-Apr-16 10:50 202 6 gusting 11 20.0
2014-Apr-16 10:45 292 5 gusting 8 20.0
2014-Apr-16 10:40 157 6 gusting 12 19.4
2014-Apr-16 10:35 247 3 gusting 5 19.4
2014-Apr-16 10:30 202 6 gusting 13 20.0
2014-Apr-16 10:25 202 6 gusting 10 19.4
2014-Apr-16 10:20 247 6 gusting 9 19.4
2014-Apr-16 10:15 202 6 gusting 10 19.4
2014-Apr-16 10:10 270 5 gusting 7 19.4
2014-Apr-16 10:05 225 6 gusting 9 19.4
2014-Apr-16 10:00 225 6 gusting 16 19.4
2014-Apr-16 09:55 247 6 gusting 8 19.4
2014-Apr-16 09:50 225 5 gusting 9 20.0
2014-Apr-16 09:45 225 8 gusting 13 20.6
2014-Apr-16 09:40 225 6 gusting 11 20.6
2014-Apr-16 09:35 225 6 gusting 8 20.6
2014-Apr-16 09:30 225 5 gusting 10 20.6
2014-Apr-16 09:25 247 5 gusting 8 21.1
2014-Apr-16 09:20 270 5 gusting 10 20.6
2014-Apr-16 09:15 247 5 gusting 11 20.0
2014-Apr-16 09:10 202 7 gusting 12 20.6
2014-Apr-16 09:05 270 8 gusting 12 20.6
2014-Apr-16 09:00 225 6 gusting 13 20.6
2014-Apr-16 08:55 247 6 gusting 11 20.0
2014-Apr-16 08:50 225 6 gusting 8 20.0
2014-Apr-16 08:45 247 6 gusting 13 20.6
2014-Apr-16 08:40 180 7 gusting 13 20.6
2014-Apr-16 08:35 270 3 gusting 6 20.6
2014-Apr-16 08:30 180 4 gusting 7 20.6
2014-Apr-16 08:25 225 5 gusting 8 19.4
2014-Apr-16 08:20 225 6 gusting 12 18.9
2014-Apr-16 08:15 247 6 gusting 9 18.3
2014-Apr-16 08:10 270 6 gusting 8 17.8
2014-Apr-16 08:05 202 7 gusting 9 17.2
2014-Apr-16 08:00 202 3 gusting 6 17.2
2014-Apr-16 07:55 270 5 gusting 6 17.2
2014-Apr-16 07:50 225 6 gusting 8 16.7
2014-Apr-16 07:45 202 8 gusting 11 16.7
2014-Apr-16 07:40 247 4 gusting 8 16.7
2014-Apr-16 07:35 202 5 gusting 6 16.7
2014-Apr-16 07:30 180 6 gusting 9 16.1
2014-Apr-16 07:25 270 5 gusting 7 16.1
2014-Apr-16 07:20 180 3 gusting 5 15.6
2014-Apr-16 07:15 292 1 gusting 2 15.6
2014-Apr-16 07:10 180 3 gusting 5 15.6
2014-Apr-16 07:05 247 1 gusting 3 15.0
2014-Apr-16 07:00 135 2 gusting 4 15.0
2014-Apr-16 06:55 270 1 gusting 4 14.4
2014-Apr-16 06:50 202 2 gusting 4 14.4
2014-Apr-16 06:45 225 1 gusting 2 14.4
2014-Apr-16 06:40 180 1 gusting 2 14.4
2014-Apr-16 06:35 225 1 gusting 2 13.9
2014-Apr-16 06:30 202 3 gusting 5 13.9
2014-Apr-16 06:25 247 3 gusting 5 13.9
2014-Apr-16 06:20 202 2 gusting 3 13.9
2014-Apr-16 06:15 202 2 gusting 4 13.9
2014-Apr-16 06:10 180 1 gusting 3 13.9
2014-Apr-16 06:05 180 3 gusting 4 13.3
2014-Apr-16 06:00 225 1 gusting 3 13.3
2014-Apr-16 05:55 225 0 gusting 0 12.8
2014-Apr-16 05:50 157 1 gusting 3 12.8
2014-Apr-16 05:45 135 0 gusting 2 12.8
2014-Apr-16 05:40 202 12.2
2014-Apr-16 05:35 112 12.2
2014-Apr-16 05:30 112 11.7
2014-Apr-16 05:25 202 11.7
2014-Apr-16 05:20 11.1
2014-Apr-16 05:15 067 11.1
2014-Apr-16 05:10 112 0 gusting 0 11.1
2014-Apr-16 05:05 315 10.6
2014-Apr-16 05:01 045 10.6
2014-Apr-16 04:56 112 0 gusting 1 10.6
2014-Apr-16 04:51 090 0 gusting 1 10.6
2014-Apr-16 04:46 112 10.0
2014-Apr-16 04:41 090 10.0
2014-Apr-16 04:32 112 0 gusting 2 10.0
2014-Apr-16 04:30 112 1 gusting 2 10.0
2014-Apr-16 04:25 112 0 gusting 0 10.0
2014-Apr-16 04:15 112 1 gusting 2 10.0
2014-Apr-16 04:10 090 1 gusting 2 9.4
2014-Apr-16 04:05 090 2 gusting 3 9.4
2014-Apr-16 04:00 090 0 gusting 3 9.4
2014-Apr-16 03:59 112 9.4
2014-Apr-16 03:55 067 1 gusting 3 9.4
2014-Apr-16 03:50 112 2 gusting 4 9.4
2014-Apr-16 03:45 090 1 gusting 3 8.9
2014-Apr-16 03:40 090 1 gusting 3 8.9
2014-Apr-16 03:35 090 8.9
2014-Apr-16 03:30 045 8.9
2014-Apr-16 03:25 045 8.9
2014-Apr-16 03:20 045 8.9
2014-Apr-16 03:15 135 8.9
2014-Apr-16 03:10 045 8.9
2014-Apr-16 03:05 022 8.9
2014-Apr-16 03:00 8.9
2014-Apr-16 02:55 090 0 gusting 0 8.9
2014-Apr-16 02:50 090 0 gusting 0 8.9
2014-Apr-16 02:45 247 0 gusting 1 8.9
2014-Apr-16 02:40 202 8.9
2014-Apr-16 02:35 067 8.9
2014-Apr-16 02:30 067 8.9
2014-Apr-16 02:25 022 8.9
2014-Apr-16 02:20 8.9
2014-Apr-16 02:15 135 8.3
2014-Apr-16 02:10 045 0 gusting 0 8.9
2014-Apr-16 02:05 090 8.9
2014-Apr-16 02:00 090 0 gusting 3 8.9
2014-Apr-16 01:55 112 8.9
2014-Apr-16 01:50 8.9
2014-Apr-16 01:45 090 0 gusting 1 8.3
2014-Apr-16 01:40 112 8.3
2014-Apr-16 01:35 045 8.9
2014-Apr-16 01:30 315 8.9
2014-Apr-16 01:25 090 0 gusting 4 8.9
2014-Apr-16 01:20 090 0 gusting 3 8.9
2014-Apr-16 01:15 112 1 gusting 2 8.9
2014-Apr-16 01:10 202 8.9
2014-Apr-16 01:05 067 0 gusting 0 8.9
2014-Apr-16 01:00 090 0 gusting 0 8.9
2014-Apr-16 00:55 112 0 gusting 2 8.9
2014-Apr-16 00:50 090 8.9
2014-Apr-16 00:45 112 1 gusting 2 8.9
2014-Apr-16 00:40 090 1 gusting 1 8.9
2014-Apr-16 00:35 045 8.9
2014-Apr-16 00:30 090 0 gusting 2 8.9
2014-Apr-16 00:25 090 8.9
2014-Apr-16 00:20 090 0 gusting 2 9.4
2014-Apr-16 00:15 090 9.4
2014-Apr-16 00:10 090 9.4
2014-Apr-16 00:05 090 1 gusting 2 9.4
2014-Apr-16 00:00 112 0 gusting 3 10.0
2014-Apr-15 23:55 090 1 gusting 2 10.0
2014-Apr-15 23:50 045 10.0
2014-Apr-15 23:45 315 10.0
2014-Apr-15 23:40 022 0 gusting 3 10.0
2014-Apr-15 23:35 10.0
2014-Apr-15 23:30 315 0 gusting 1 10.6
2014-Apr-15 23:25 292 1 gusting 2 10.0
2014-Apr-15 23:20 270 3 gusting 5 10.0
2014-Apr-15 23:15 292 2 gusting 4 9.4
2014-Apr-15 23:10 022 0 gusting 2 9.4
2014-Apr-15 23:05 045 9.4
2014-Apr-15 23:00 9.4
2014-Apr-15 22:55 045 0 gusting 1 9.4
2014-Apr-15 22:50 067 0 gusting 1 8.9
2014-Apr-15 22:45 337 0 gusting 3 8.9
2014-Apr-15 22:40 090 8.9
2014-Apr-15 22:35 090 9.4
2014-Apr-15 22:30 022 9.4
2014-Apr-15 22:25 292 9.4
2014-Apr-15 22:20 067 0 gusting 0 9.4
2014-Apr-15 22:15 090 1 gusting 1 9.4
2014-Apr-15 22:10 112 9.4
2014-Apr-15 22:05 112 9.4
2014-Apr-15 22:00 067 10.0
2014-Apr-15 21:55 022 10.0
2014-Apr-15 21:50 10.0
2014-Apr-15 21:45 067 0 gusting 1 10.0
2014-Apr-15 21:40 090 1 gusting 2 10.6
2014-Apr-15 21:35 090 10.6
2014-Apr-15 21:30 247 10.6
2014-Apr-15 21:25 090 0 gusting 1 10.6
2014-Apr-15 21:20 112 3 gusting 4 10.6
2014-Apr-15 21:15 112 10.0
2014-Apr-15 21:10 022 10.0
2014-Apr-15 21:05 315 10.0
2014-Apr-15 21:00 337 0 gusting 2 10.0
2014-Apr-15 20:55 10.0
2014-Apr-15 20:50 022 10.0
2014-Apr-15 20:45 090 10.0
2014-Apr-15 20:40 045 10.0
2014-Apr-15 20:35 10.0
2014-Apr-15 20:30 022 10.0
2014-Apr-15 20:25 090 0 gusting 1 10.0
2014-Apr-15 20:20 045 0 gusting 1 10.0
2014-Apr-15 20:15 090 10.0
2014-Apr-15 20:10 067 10.0
2014-Apr-15 20:05 10.0
2014-Apr-15 20:00 067 1 gusting 2 10.0
2014-Apr-15 19:55 067 10.6
2014-Apr-15 19:50 090 2 gusting 3 10.0
2014-Apr-15 19:45 090 10.6
2014-Apr-15 19:40 045 0 gusting 1 10.6
2014-Apr-15 19:35 090 0 gusting 1 10.6
2014-Apr-15 19:30 090 0 gusting 2 10.6
2014-Apr-15 19:25 090 10.6
2014-Apr-15 19:20 090 10.6
2014-Apr-15 19:15 090 0 gusting 3 10.6
2014-Apr-15 19:10 090 0 gusting 1 11.1
2014-Apr-15 19:05 090 11.1
2014-Apr-15 19:00 090 1 gusting 2 11.1
2014-Apr-15 18:55 090 2 gusting 2 11.1
2014-Apr-15 18:50 090 2 gusting 2 11.1
2014-Apr-15 18:45 112 11.1
2014-Apr-15 18:40 112 0 gusting 0 11.1
2014-Apr-15 18:35 090 1 gusting 1 11.7
2014-Apr-15 18:30 090 0 gusting 2 11.7
2014-Apr-15 18:25 090 0 gusting 3 11.7
2014-Apr-15 18:20 112 1 gusting 4 11.7
2014-Apr-15 18:15 090 2 gusting 2 11.7
2014-Apr-15 18:10 112 0 gusting 3 11.7
2014-Apr-15 18:05 090 1 gusting 2 11.7
2014-Apr-15 18:00 090 1 gusting 3 12.2
2014-Apr-15 17:55 067 1 gusting 2 12.2
2014-Apr-15 17:50 067 0 gusting 1 12.2
2014-Apr-15 17:45 067 2 gusting 3 12.2
2014-Apr-15 17:40 112 0 gusting 2 12.2
2014-Apr-15 17:35 090 1 gusting 2 12.2
2014-Apr-15 17:30 067 0 gusting 0 12.8
2014-Apr-15 17:25 090 1 gusting 3 12.8
2014-Apr-15 17:20 090 1 gusting 3 12.8
2014-Apr-15 17:15 112 0 gusting 0 12.8
2014-Apr-15 17:10 112 0 gusting 3 13.3
2014-Apr-15 17:05 112 0 gusting 1 13.3
2014-Apr-15 17:00 135 1 gusting 2 13.9
2014-Apr-15 16:55 135 1 gusting 3 13.9
2014-Apr-15 16:50 135 2 gusting 3 14.4
2014-Apr-15 16:45 180 0 gusting 1 15.0
2014-Apr-15 16:40 202 1 gusting 3 15.0
2014-Apr-15 16:35 135 1 gusting 3 15.6
2014-Apr-15 16:30 112 3 gusting 5 16.1
2014-Apr-15 16:25 135 2 gusting 3 16.1
2014-Apr-15 16:20 180 3 gusting 4 16.7
2014-Apr-15 16:15 157 0 gusting 3 17.2
2014-Apr-15 16:10 202 2 gusting 4 17.2
2014-Apr-15 16:05 135 4 gusting 5 17.8
2014-Apr-15 16:00 157 3 gusting 5 17.8
2014-Apr-15 15:55 202 3 gusting 5 18.3
2014-Apr-15 15:50 180 0 gusting 2 17.8
2014-Apr-15 15:45 157 1 gusting 3 18.3
2014-Apr-15 15:40 180 4 gusting 6 18.3
2014-Apr-15 15:35 202 3 gusting 4 18.3
2014-Apr-15 15:30 202 4 gusting 7 18.3
2014-Apr-15 15:25 157 3 gusting 4 18.9
2014-Apr-15 15:20 180 5 gusting 6 18.9
2014-Apr-15 15:15 202 5 gusting 6 18.9
2014-Apr-15 15:10 135 4 gusting 6 19.4
2014-Apr-15 15:05 202 5 gusting 8 20.0
2014-Apr-15 15:00 157 4 gusting 6 20.6
2014-Apr-15 14:55 202 2 gusting 3 20.6
2014-Apr-15 14:50 247 3 gusting 6 20.6
2014-Apr-15 14:45 202 4 gusting 6 20.6
2014-Apr-15 14:40 20.0
2014-Apr-15 14:35 202 4 gusting 6 20.0
2014-Apr-15 14:30 112 5 gusting 6 20.6
2014-Apr-15 14:25 180 3 gusting 6 20.6
2014-Apr-15 14:20 202 3 gusting 4 21.1
2014-Apr-15 14:15 157 4 gusting 6 21.1
2014-Apr-15 14:10 225 5 gusting 7 21.7
2014-Apr-15 14:05 225 5 gusting 6 21.7
2014-Apr-15 14:00 180 4 gusting 6 21.7
2014-Apr-15 13:55 202 3 gusting 6 21.7
2014-Apr-15 13:50 292 2 gusting 4 21.7
2014-Apr-15 13:45 247 2 gusting 5 21.7
2014-Apr-15 13:40 270 6 gusting 9 22.2
2014-Apr-15 13:35 225 2 gusting 3 21.7
2014-Apr-15 13:30 225 5 gusting 7 22.2
2014-Apr-15 13:25 247 6 gusting 9 22.2
2014-Apr-15 13:20 270 3 gusting 6 22.2
2014-Apr-15 13:15 270 1 gusting 3 21.7
2014-Apr-15 13:10 225 2 gusting 4 21.7
2014-Apr-15 13:05 225 4 gusting 6 21.7
2014-Apr-15 13:00 270 3 gusting 6 21.7
2014-Apr-15 12:55 270 4 gusting 5 22.2
2014-Apr-15 12:50 247 5 gusting 7 22.2
2014-Apr-15 12:45 247 2 gusting 3 22.2
2014-Apr-15 12:40 247 4 gusting 7 22.2
2014-Apr-15 12:35 225 4 gusting 6 21.7
2014-Apr-15 12:30 225 4 gusting 7 21.7
2014-Apr-15 12:25 292 5 gusting 11 21.7
2014-Apr-15 12:20 315 6 gusting 8 21.1
2014-Apr-15 12:15 270 5 gusting 7 21.7
2014-Apr-15 12:10 202 6 gusting 7 21.7
2014-Apr-15 12:05 270 5 gusting 6 21.7
2014-Apr-15 12:00 202 4 gusting 7 21.7
2014-Apr-15 11:55 270 6 gusting 8 21.7
2014-Apr-15 11:50 247 5 gusting 7 21.7
2014-Apr-15 11:45 180 3 gusting 7 21.7
2014-Apr-15 11:40 270 4 gusting 6 21.7
2014-Apr-15 11:35 292 6 gusting 7 21.7
2014-Apr-15 11:30 225 5 gusting 7 21.7
2014-Apr-15 11:25 270 6 gusting 7 21.7
2014-Apr-15 11:20 270 4 gusting 6 21.7
2014-Apr-15 11:15 270 6 gusting 12 21.7
2014-Apr-15 11:10 247 5 gusting 9 21.7
2014-Apr-15 11:05 180 6 gusting 7 21.7
2014-Apr-15 11:00 202 3 gusting 4 21.7
2014-Apr-15 10:55 270 5 gusting 6 21.7
2014-Apr-15 10:50 202 6 gusting 8 21.7
2014-Apr-15 10:45 202 5 gusting 8 21.7
2014-Apr-15 10:40 270 6 gusting 7 21.7
2014-Apr-15 10:35 225 4 gusting 5 22.2
2014-Apr-15 10:30 315 2 gusting 4 22.2
2014-Apr-15 10:25 337 5 gusting 7 21.7
2014-Apr-15 10:20 270 3 gusting 6 21.7
2014-Apr-15 10:15 247 4 gusting 6 21.7
2014-Apr-15 10:10 270 4 gusting 6 21.7
2014-Apr-15 10:05 270 2 gusting 4 21.7
2014-Apr-15 10:00 225 2 gusting 4 21.1
2014-Apr-15 09:55 270 5 gusting 6 21.1
2014-Apr-15 09:50 157 5 gusting 7 21.1
2014-Apr-15 09:45 202 1 gusting 2 21.1
2014-Apr-15 09:40 157 2 gusting 7 21.1
2014-Apr-15 09:35 180 1 gusting 2 21.1
2014-Apr-15 09:30 247 4 gusting 6 21.1
2014-Apr-15 09:25 247 4 gusting 7 21.1
2014-Apr-15 09:20 315 5 gusting 6 21.1
2014-Apr-15 09:15 247 6 gusting 6 21.1
2014-Apr-15 09:10 270 5 gusting 7 21.1
2014-Apr-15 09:05 337 4 gusting 5 21.1
2014-Apr-15 09:00 180 4 gusting 7 21.1
2014-Apr-15 08:55 270 1 gusting 3 21.1
2014-Apr-15 08:50 270 3 gusting 5 21.1
2014-Apr-15 08:45 292 5 gusting 7 21.1
2014-Apr-15 08:40 292 3 gusting 5 21.1
2014-Apr-15 08:35 292 1 gusting 3 21.1
2014-Apr-15 08:30 270 5 gusting 6 21.1
2014-Apr-15 08:25 315 5 gusting 6 21.7
2014-Apr-15 08:20 247 0 gusting 3 21.7
2014-Apr-15 08:15 270 3 gusting 6 21.7
2014-Apr-15 08:10 247 3 gusting 5 21.1
2014-Apr-15 08:05 292 2 gusting 3 21.1
2014-Apr-15 08:00 247 3 gusting 5 21.1
2014-Apr-15 07:55 270 0 gusting 1 20.6
2014-Apr-15 07:50 270 3 gusting 4 20.6
2014-Apr-15 07:45 292 3 gusting 7 20.6
2014-Apr-15 07:40 157 0 gusting 0 20.6
2014-Apr-15 07:35 315 3 gusting 4 20.6
2014-Apr-15 07:30 247 0 gusting 1 20.6
2014-Apr-15 07:25 315 2 gusting 4 20.0
2014-Apr-15 07:20 180 1 gusting 2 20.0
2014-Apr-15 07:15 292 2 gusting 3 20.0
2014-Apr-15 07:10 225 2 gusting 3 20.0
2014-Apr-15 07:05 270 19.4
2014-Apr-15 07:00 225 2 gusting 4 19.4
2014-Apr-15 06:55 292 1 gusting 1 19.4
2014-Apr-15 06:50 270 2 gusting 4 19.4
2014-Apr-15 06:45 270 2 gusting 4 18.9
2014-Apr-15 06:40 270 2 gusting 3 18.9
2014-Apr-15 06:35 292 0 gusting 1 18.9
2014-Apr-15 06:30 270 0 gusting 1 18.3
2014-Apr-15 06:25 270 2 gusting 3 18.3
2014-Apr-15 06:20 292 18.3
2014-Apr-15 06:15 315 0 gusting 1 18.3
2014-Apr-15 06:10 225 0 gusting 2 18.3
2014-Apr-15 06:05 270 0 gusting 3 18.9
2014-Apr-15 06:00 315 18.3
2014-Apr-15 05:55 315 1 gusting 3 17.8
2014-Apr-15 05:50 022 0 gusting 3 17.8
2014-Apr-15 05:45 022 0 gusting 1 18.3
2014-Apr-15 05:40 17.8
2014-Apr-15 05:35 067 17.2
2014-Apr-15 05:30 292 16.7
2014-Apr-15 05:25 315 16.1
2014-Apr-15 05:20 15.6
2014-Apr-15 05:15 022 15.0
2014-Apr-15 05:10 022 0 gusting 3 13.9
2014-Apr-15 05:05 045 13.3
2014-Apr-15 05:00 090 12.8
2014-Apr-15 04:55 067 11.7
2014-Apr-15 04:50 045 0 gusting 0 11.1
2014-Apr-15 04:45 090 10.6
2014-Apr-15 04:40 090 0 gusting 1 9.4
2014-Apr-15 04:35 090 8.9
2014-Apr-15 04:30 067 0 gusting 3 7.8
2014-Apr-15 04:25 090 7.2
2014-Apr-15 04:20 067 7.2
2014-Apr-15 04:15 067 7.2
2014-Apr-15 04:10 090 1 gusting 2 7.2
2014-Apr-15 04:05 067 7.2
2014-Apr-15 04:00 067 0 gusting 0 7.2
2014-Apr-15 03:55 090 0 gusting 0 6.7
2014-Apr-15 03:50 067 6.7
2014-Apr-15 03:45 090 6.7
2014-Apr-15 03:40 067 7.2
2014-Apr-15 03:35 090 0 gusting 1 7.2
2014-Apr-15 03:30 067 1 gusting 3 7.2
2014-Apr-15 03:25 090 7.2
2014-Apr-15 03:20 022 0 gusting 3 7.2
2014-Apr-15 03:15 090 0 gusting 3 6.7
2014-Apr-15 03:10 090 0 gusting 1 7.2
2014-Apr-15 03:05 067 7.2
2014-Apr-15 03:00 090 6.7
2014-Apr-15 02:55 090 0 gusting 3 6.7
2014-Apr-15 02:50 067 0 gusting 3 7.2
2014-Apr-15 02:45 7.2
2014-Apr-15 02:40 045 0 gusting 0 7.2
2014-Apr-15 02:35 090 1 gusting 3 7.2
2014-Apr-15 02:30 090 7.2
2014-Apr-15 02:25 090 7.2
2014-Apr-15 02:20 090 0 gusting 3 7.2
2014-Apr-15 02:15 090 7.2
2014-Apr-15 02:10 045 0 gusting 0 7.2
2014-Apr-15 02:05 090 1 gusting 3 7.2
2014-Apr-15 02:00 090 0 gusting 1 7.2
2014-Apr-15 01:55 090 0 gusting 1 6.7
2014-Apr-15 01:50 067 7.2
2014-Apr-15 01:45 090 0 gusting 3 6.7
2014-Apr-15 01:40 090 7.2
2014-Apr-15 01:35 045 7.2
2014-Apr-15 01:30 090 7.2
2014-Apr-15 01:25 067 7.2
2014-Apr-15 01:20 090 7.2
2014-Apr-15 01:15 067 7.2
2014-Apr-15 01:10 090 0 gusting 1 7.8
2014-Apr-15 01:05 090 1 gusting 3 7.8
2014-Apr-15 01:00 090 7.8
2014-Apr-15 00:55 090 1 gusting 2 7.8
2014-Apr-15 00:50 090 0 gusting 0 8.3
2014-Apr-15 00:45 270 8.3
2014-Apr-15 00:40 270 8.9
2014-Apr-15 00:35 045 0 gusting 2 8.9
2014-Apr-15 00:30 045 0 gusting 3 8.9
2014-Apr-15 00:25 022 1 gusting 2 8.3
2014-Apr-15 00:20 022 2 gusting 3 8.3
2014-Apr-15 00:15 8.3
2014-Apr-15 00:10 8.3
2014-Apr-15 00:05 315 0 gusting 3 8.3
2014-Apr-15 00:00 292 0 gusting 1 8.3
2014-Apr-14 23:55 8.3
2014-Apr-14 23:50 8.3
2014-Apr-14 23:45 8.3
2014-Apr-14 23:40 8.3
2014-Apr-14 23:35 022 0 gusting 1 8.3
2014-Apr-14 23:30 8.3
2014-Apr-14 23:25 337 0 gusting 0 8.3
2014-Apr-14 23:20 8.3
2014-Apr-14 23:15 022 0 gusting 3 8.3
2014-Apr-14 23:10 8.3
2014-Apr-14 23:05 045 8.3
2014-Apr-14 23:00 8.9
2014-Apr-14 22:55 045 0 gusting 1 8.9
2014-Apr-14 22:50 022 0 gusting 1 8.3
2014-Apr-14 22:45 022 0 gusting 3 8.9
2014-Apr-14 22:40 8.9
2014-Apr-14 22:35 022 0 gusting 0 8.9
2014-Apr-14 22:30 022 1 gusting 2 8.3
2014-Apr-14 22:25 8.3
2014-Apr-14 22:20 8.3
2014-Apr-14 22:15 8.3
2014-Apr-14 22:10 045 8.9
2014-Apr-14 22:05 337 8.9
2014-Apr-14 22:00 022 0 gusting 3 8.3
2014-Apr-14 21:55 8.3
2014-Apr-14 21:50 8.3
2014-Apr-14 21:45 8.9
2014-Apr-14 21:40 337 8.9
2014-Apr-14 21:35 337 8.9
2014-Apr-14 21:30 022 8.9
2014-Apr-14 21:25 8.9
2014-Apr-14 21:20 022 8.9
2014-Apr-14 21:15 022 8.9
2014-Apr-14 21:10 8.9
2014-Apr-14 21:05 8.9
2014-Apr-14 21:00 022 8.9
2014-Apr-14 20:55 8.9
2014-Apr-14 20:50 045 8.9
2014-Apr-14 20:45 8.9
2014-Apr-14 20:40 8.9
2014-Apr-14 20:35 8.9
2014-Apr-14 20:30 8.9
2014-Apr-14 20:25 8.9
2014-Apr-14 20:20 022 8.9
2014-Apr-14 20:15 045 8.9
2014-Apr-14 20:10 045 8.9
2014-Apr-14 20:05 9.4
2014-Apr-14 20:00 9.4
2014-Apr-14 19:55 090 9.4
2014-Apr-14 19:50 090 9.4
2014-Apr-14 19:45 090 9.4
2014-Apr-14 19:40 090 9.4
2014-Apr-14 19:35 112 9.4
2014-Apr-14 19:30 090 9.4
2014-Apr-14 19:25 090 9.4
2014-Apr-14 19:20 090 9.4
2014-Apr-14 19:15 090 0 gusting 0 9.4
2014-Apr-14 19:10 090 0 gusting 1 9.4
2014-Apr-14 19:05 090 1 gusting 4 9.4
2014-Apr-14 19:00 112 0 gusting 3 10.0
2014-Apr-14 18:55 090 10.0
2014-Apr-14 18:50 067 10.0
2014-Apr-14 18:45 067 0 gusting 1 10.0
2014-Apr-14 18:40 090 0 gusting 0 10.0
2014-Apr-14 18:35 112 1 gusting 2 10.0
2014-Apr-14 18:30 090 0 gusting 2 10.0
2014-Apr-14 18:25 090 0 gusting 2 10.0
2014-Apr-14 18:20 090 0 gusting 2 10.0
2014-Apr-14 18:15 067 0 gusting 0 10.0
2014-Apr-14 18:10 090 1 gusting 2 10.0
2014-Apr-14 18:05 112 0 gusting 0 10.6
2014-Apr-14 18:00 090 1 gusting 2 10.6
2014-Apr-14 17:55 112 0 gusting 1 10.6
2014-Apr-14 17:50 090 0 gusting 0 10.6
2014-Apr-14 17:45 090 0 gusting 3 10.6
2014-Apr-14 17:40 090 0 gusting 0 10.6
2014-Apr-14 17:35 090 0 gusting 1 11.1
2014-Apr-14 17:30 090 1 gusting 2 11.1
2014-Apr-14 17:25 090 0 gusting 1 11.1
2014-Apr-14 17:20 067 11.7
2014-Apr-14 17:15 067 0 gusting 2 11.7
2014-Apr-14 17:10 090 0 gusting 1 12.2
2014-Apr-14 17:05 090 0 gusting 3 12.2
2014-Apr-14 17:00 112 12.8
2014-Apr-14 16:55 202 12.8
2014-Apr-14 16:50 202 13.3
2014-Apr-14 16:45 135 13.3
2014-Apr-14 16:40 157 13.3
2014-Apr-14 16:35 202 13.9
2014-Apr-14 16:30 180 1 gusting 3 14.4
2014-Apr-14 16:25 202 1 gusting 2 15.0
2014-Apr-14 16:20 225 1 gusting 3 15.0
2014-Apr-14 16:15 202 1 gusting 2 15.6
2014-Apr-14 16:10 225 0 gusting 1 15.6
2014-Apr-14 16:05 180 0 gusting 2 16.1
2014-Apr-14 16:00 180 2 gusting 5 16.7